createdAt,value
2018-06-24T00:00:23.615Z,11.57
2018-06-24T00:02:52.074Z,7.70
2018-06-24T00:05:20.563Z,11.90
2018-06-24T00:07:49.040Z,11.13
2018-06-24T00:10:17.534Z,14.77
2018-06-24T00:12:45.985Z,10.77
2018-06-24T00:15:14.435Z,7.87
2018-06-24T00:17:42.891Z,10.63
2018-06-24T00:20:11.393Z,8.03
2018-06-24T00:22:39.882Z,8.87
2018-06-24T00:25:08.437Z,12.50
2018-06-24T00:27:36.940Z,10.63
2018-06-24T00:30:05.941Z,13.20
2018-06-24T00:32:35.689Z,10.20
2018-06-24T00:35:04.205Z,12.23
2018-06-24T00:37:32.674Z,11.17
2018-06-24T00:40:00.805Z,11.53
2018-06-24T00:42:29.359Z,9.60
2018-06-24T00:44:57.817Z,9.70
2018-06-24T00:47:26.265Z,12.73
2018-06-24T00:49:54.793Z,11.43
2018-06-24T00:52:23.295Z,8.77
2018-06-24T00:54:51.801Z,11.30
2018-06-24T00:57:20.428Z,10.60
2018-06-24T00:59:54.258Z,10.77
2018-06-24T01:02:22.961Z,9.13
2018-06-24T01:04:51.390Z,9.87
2018-06-24T01:07:20.022Z,14.27
2018-06-24T01:09:48.452Z,10.00
2018-06-24T01:12:16.918Z,10.63
2018-06-24T01:14:45.452Z,10.33
2018-06-24T01:17:13.672Z,11.97
2018-06-24T01:19:42.108Z,11.40
2018-06-24T01:22:10.573Z,14.00
2018-06-24T01:24:39.012Z,13.00
2018-06-24T01:27:07.594Z,11.63
2018-06-24T01:29:36.134Z,11.17
2018-06-24T01:32:04.728Z,17.17
2018-06-24T01:34:33.244Z,13.13
2018-06-24T01:37:01.738Z,13.73
2018-06-24T01:39:30.279Z,13.83
2018-06-24T01:41:59.387Z,17.13
2018-06-24T01:44:27.939Z,13.87
2018-06-24T01:46:56.394Z,15.47
2018-06-24T01:49:24.927Z,13.83
2018-06-24T01:51:58.940Z,13.90
2018-06-24T01:54:27.482Z,14.07
2018-06-24T01:56:56.394Z,15.27
2018-06-24T01:59:24.844Z,15.43
2018-06-24T02:01:53.876Z,19.73
2018-06-24T02:04:22.689Z,15.53
2018-06-24T02:06:51.488Z,17.03
2018-06-24T02:09:19.986Z,14.43
2018-06-24T02:11:48.485Z,17.30
2018-06-24T02:14:16.980Z,16.30
2018-06-24T02:16:45.499Z,18.03
2018-06-24T02:19:14.048Z,16.40
2018-06-24T02:21:42.319Z,14.73
2018-06-24T02:24:10.822Z,17.67
2018-06-24T02:26:39.286Z,16.63
2018-06-24T02:29:07.873Z,14.57
2018-06-24T02:31:36.308Z,14.50
2018-06-24T02:34:04.858Z,20.23
2018-06-24T02:36:33.425Z,16.47
2018-06-24T02:39:01.892Z,13.47
2018-06-24T02:41:30.364Z,14.03
2018-06-24T02:43:58.836Z,13.10
2018-06-24T02:46:27.298Z,18.53
2018-06-24T02:48:56.324Z,13.60
2018-06-24T02:51:24.840Z,14.00
2018-06-24T02:53:53.296Z,15.93
2018-06-24T02:56:21.813Z,16.13
2018-06-24T02:58:50.298Z,16.23
2018-06-24T03:01:18.738Z,14.83
2018-06-24T03:03:47.237Z,12.93
2018-06-24T03:06:15.681Z,14.57
2018-06-24T03:08:44.260Z,13.23
2018-06-24T03:11:12.821Z,18.13
2018-06-24T03:13:41.282Z,17.37
2018-06-24T03:16:09.864Z,18.00
2018-06-24T03:18:38.472Z,17.37
2018-06-24T03:21:07.059Z,20.73
2018-06-24T03:23:35.591Z,14.13
2018-06-24T03:26:05.188Z,17.27
2018-06-24T03:28:33.655Z,17.87
2018-06-24T03:31:02.294Z,11.80
2018-06-24T03:33:30.736Z,16.10
2018-06-24T03:35:59.271Z,17.90
2018-06-24T03:38:27.715Z,15.50
2018-06-24T03:40:56.199Z,19.83
2018-06-24T03:43:24.642Z,18.27
2018-06-24T03:45:53.233Z,16.67
2018-06-24T03:48:21.702Z,17.07
2018-06-24T03:50:50.142Z,16.93
2018-06-24T03:53:18.338Z,17.10
2018-06-24T03:55:46.765Z,14.20
2018-06-24T03:58:15.385Z,15.97
2018-06-24T04:00:43.881Z,16.17
2018-06-24T04:03:12.355Z,17.00
2018-06-24T04:05:40.963Z,17.87
2018-06-24T04:08:09.427Z,21.33
2018-06-24T04:10:37.897Z,17.20
2018-06-24T04:13:06.680Z,18.27
2018-06-24T04:15:35.135Z,16.37
2018-06-24T04:18:03.666Z,18.07
2018-06-24T04:20:32.249Z,16.87
2018-06-24T04:23:00.670Z,19.07
2018-06-24T04:25:29.528Z,16.03
2018-06-24T04:27:57.979Z,18.17
2018-06-24T04:30:26.444Z,18.97
2018-06-24T04:32:54.888Z,23.27
2018-06-24T04:35:23.361Z,18.57
2018-06-24T04:37:51.794Z,22.13
2018-06-24T04:40:20.290Z,23.00
2018-06-24T04:42:50.084Z,20.53
2018-06-24T04:45:18.535Z,18.93
2018-06-24T04:47:46.983Z,18.70
2018-06-24T04:50:15.448Z,20.00
2018-06-24T04:52:43.888Z,19.03
2018-06-24T04:55:12.578Z,17.20
2018-06-24T04:57:41.100Z,20.93
2018-06-24T05:00:09.842Z,19.93
2018-06-24T05:02:38.300Z,16.93
2018-06-24T05:05:06.959Z,15.90
2018-06-24T05:07:35.482Z,18.73
2018-06-24T05:10:04.872Z,17.53
2018-06-24T05:12:33.329Z,19.07
2018-06-24T05:15:01.765Z,19.13
2018-06-24T05:17:30.218Z,17.80
2018-06-24T05:20:00.009Z,19.00
2018-06-24T05:22:28.505Z,17.77
2018-06-24T05:24:57.020Z,18.83
2018-06-24T05:27:25.583Z,20.93
2018-06-24T05:29:54.059Z,23.53
2018-06-24T05:32:22.526Z,18.80
2018-06-24T05:34:51.045Z,19.47
2018-06-24T05:37:19.496Z,19.50
2018-06-24T05:39:47.966Z,18.30
2018-06-24T05:42:16.464Z,18.20
2018-06-24T05:44:44.898Z,19.73
2018-06-24T05:47:13.357Z,20.63
2018-06-24T05:49:42.012Z,17.43
2018-06-24T05:52:10.474Z,21.63
2018-06-24T05:54:38.930Z,19.47
2018-06-24T05:57:07.421Z,23.00
2018-06-24T05:59:35.980Z,22.93
2018-06-24T06:02:04.450Z,18.33
2018-06-24T06:04:33.005Z,18.97
2018-06-24T06:07:01.530Z,21.23
2018-06-24T06:09:31.805Z,18.20
2018-06-24T06:12:00.292Z,15.70
2018-06-24T06:14:29.164Z,17.93
2018-06-24T06:16:57.766Z,24.17
2018-06-24T06:19:26.225Z,23.03
2018-06-24T06:21:54.350Z,20.03
2018-06-24T06:24:22.803Z,22.20
2018-06-24T06:26:51.496Z,17.67
2018-06-24T06:29:20.050Z,22.17
2018-06-24T06:31:48.577Z,22.67
2018-06-24T06:34:17.147Z,21.33
2018-06-24T06:36:45.654Z,22.90
2018-06-24T06:39:14.104Z,19.50
2018-06-24T06:41:42.645Z,21.70
2018-06-24T06:44:11.269Z,22.30
2018-06-24T06:46:39.856Z,22.87
2018-06-24T06:49:08.421Z,19.13
2018-06-24T06:51:36.907Z,21.63
2018-06-24T06:54:05.505Z,21.30
2018-06-24T06:56:34.086Z,19.23
2018-06-24T06:59:02.553Z,23.30
2018-06-24T07:01:31.013Z,25.20
2018-06-24T07:03:59.505Z,22.47
2018-06-24T07:06:32.535Z,22.33
2018-06-24T07:09:01.025Z,18.40
2018-06-24T07:11:29.507Z,20.27
2018-06-24T07:13:57.985Z,18.07
2018-06-24T07:16:26.559Z,18.53
2018-06-24T07:18:55.056Z,19.93
2018-06-24T07:21:23.645Z,21.70
2018-06-24T07:23:52.185Z,24.83
2018-06-24T07:26:20.715Z,20.10
2018-06-24T07:28:49.273Z,22.23
2018-06-24T07:31:17.858Z,18.33
2018-06-24T07:33:46.476Z,17.97
2018-06-24T07:36:14.829Z,21.87
2018-06-24T07:38:43.325Z,23.60
2018-06-24T07:41:11.780Z,20.77
2018-06-24T07:43:40.251Z,21.13
2018-06-24T07:46:08.751Z,19.50
2018-06-24T07:48:37.236Z,20.07
2018-06-24T07:51:05.761Z,21.20
2018-06-24T07:53:35.084Z,25.77
2018-06-24T07:56:03.696Z,19.10
2018-06-24T07:58:32.154Z,22.00
2018-06-24T08:01:00.705Z,18.93
2018-06-24T08:03:29.260Z,21.80
2018-06-24T08:05:57.939Z,19.60
2018-06-24T08:08:26.436Z,21.87
2018-06-24T08:10:54.911Z,21.10
2018-06-24T08:13:23.369Z,16.20
2018-06-24T08:15:51.847Z,16.07
2018-06-24T08:18:20.284Z,20.47
2018-06-24T08:20:48.786Z,18.23
2018-06-24T08:23:17.348Z,18.30
2018-06-24T08:25:45.894Z,20.13
2018-06-24T08:28:14.350Z,19.53
2018-06-24T08:30:42.927Z,20.93
2018-06-24T08:33:11.132Z,19.57
2018-06-24T08:35:39.681Z,17.40
2018-06-24T08:38:08.248Z,18.33
2018-06-24T08:40:36.778Z,17.10
2018-06-24T08:43:05.452Z,18.17
2018-06-24T08:45:33.956Z,16.67
2018-06-24T08:48:02.475Z,22.70
2018-06-24T08:50:31.154Z,14.17
2018-06-24T08:52:59.809Z,13.93
2018-06-24T08:55:28.360Z,12.47
2018-06-24T08:57:56.602Z,15.07
2018-06-24T09:00:25.323Z,15.27
2018-06-24T09:02:53.814Z,14.47
2018-06-24T09:05:22.325Z,14.77
2018-06-24T09:07:50.824Z,12.17
2018-06-24T09:10:20.249Z,14.10
2018-06-24T09:12:48.823Z,14.60
2018-06-24T09:15:18.756Z,16.17
2018-06-24T09:17:47.216Z,12.13
2018-06-24T09:20:16.986Z,17.37
2018-06-24T09:22:45.494Z,14.37
2018-06-24T09:25:16.208Z,14.03
2018-06-24T09:27:45.154Z,11.87
2018-06-24T09:30:13.698Z,14.10
2018-06-24T09:32:42.379Z,16.13
2018-06-24T09:35:10.934Z,12.67
2018-06-24T09:37:39.446Z,10.97
2018-06-24T09:40:07.932Z,13.63
2018-06-24T09:42:36.833Z,14.30
2018-06-24T09:45:05.632Z,11.90
2018-06-24T09:47:34.117Z,11.70
2018-06-24T09:50:02.715Z,11.43
2018-06-24T09:52:31.264Z,13.13
2018-06-24T09:55:00.255Z,13.40
2018-06-24T09:57:28.732Z,11.83
2018-06-24T09:59:57.419Z,12.07
2018-06-24T10:02:25.886Z,11.80
2018-06-24T10:04:54.350Z,9.20
2018-06-24T10:07:22.959Z,14.30
2018-06-24T10:09:51.450Z,10.60
2018-06-24T10:12:19.921Z,12.73
2018-06-24T10:14:48.453Z,10.30
2018-06-24T10:17:16.969Z,9.77
2018-06-24T10:19:45.123Z,11.23
2018-06-24T10:22:13.575Z,13.50
2018-06-24T10:24:42.154Z,8.93
2018-06-24T10:27:10.678Z,13.47
2018-06-24T10:29:39.155Z,8.43
2018-06-24T10:32:07.665Z,9.93
2018-06-24T10:34:36.178Z,9.23
2018-06-24T10:37:04.749Z,12.43
2018-06-24T10:39:33.211Z,9.30
2018-06-24T10:42:03.534Z,14.50
2018-06-24T10:44:31.761Z,8.87
2018-06-24T10:47:00.419Z,9.73
2018-06-24T10:49:28.964Z,8.13
2018-06-24T10:51:57.441Z,9.27
2018-06-24T10:54:26.066Z,6.87
2018-06-24T10:56:54.653Z,8.83
2018-06-24T10:59:23.443Z,9.40
2018-06-24T11:01:52.023Z,10.07
2018-06-24T11:04:20.629Z,9.50
2018-06-24T11:06:49.163Z,8.20
2018-06-24T11:09:17.640Z,6.67
2018-06-24T11:11:46.178Z,10.93
2018-06-24T11:14:14.654Z,7.23
2018-06-24T11:16:43.129Z,8.23
2018-06-24T11:19:11.577Z,5.10
2018-06-24T11:21:40.039Z,7.67
2018-06-24T11:24:08.519Z,6.83
2018-06-24T11:26:37.002Z,7.53
2018-06-24T11:29:05.479Z,10.20
2018-06-24T11:31:33.937Z,9.57
2018-06-24T11:34:02.429Z,8.90
2018-06-24T11:36:37.138Z,6.87
2018-06-24T11:39:08.080Z,8.50
2018-06-24T11:41:36.681Z,5.43
2018-06-24T11:44:05.405Z,6.70
2018-06-24T11:46:33.946Z,6.73
2018-06-24T11:49:02.609Z,6.10
2018-06-24T11:51:31.162Z,6.53
2018-06-24T11:53:59.654Z,6.60
2018-06-24T11:56:28.140Z,6.80
2018-06-24T11:58:56.622Z,7.47
2018-06-24T12:01:25.170Z,6.00
2018-06-24T12:03:53.783Z,5.33
2018-06-24T12:06:22.490Z,6.03
2018-06-24T12:08:50.936Z,6.17
2018-06-24T12:11:19.414Z,7.73
2018-06-24T12:13:48.068Z,7.30
2018-06-24T12:16:16.606Z,6.70
2018-06-24T12:18:45.122Z,5.03
2018-06-24T12:21:13.581Z,4.53
2018-06-24T12:23:42.038Z,8.50
2018-06-24T12:26:10.533Z,3.83
2018-06-24T12:28:38.961Z,5.83
2018-06-24T12:31:07.498Z,7.70
2018-06-24T12:33:35.973Z,3.43
2018-06-24T12:36:04.529Z,6.30
2018-06-24T12:38:32.984Z,8.27
2018-06-24T12:41:01.422Z,4.37
2018-06-24T12:43:29.923Z,4.37
2018-06-24T12:45:58.372Z,8.43
2018-06-24T12:48:26.921Z,5.37
2018-06-24T12:50:55.360Z,5.60
2018-06-24T12:53:23.853Z,5.17
2018-06-24T12:55:52.348Z,4.23
2018-06-24T12:58:20.896Z,4.27
2018-06-24T13:00:50.047Z,2.83
2018-06-24T13:03:17.833Z,3.77
2018-06-24T13:05:46.450Z,3.63
2018-06-24T13:08:14.909Z,4.10
2018-06-24T13:10:43.388Z,5.47
2018-06-24T13:13:12.003Z,3.77
2018-06-24T13:15:40.548Z,5.93
2018-06-24T13:18:09.079Z,5.97
2018-06-24T13:20:37.605Z,4.33
2018-06-24T13:23:06.322Z,3.67
2018-06-24T13:25:34.825Z,2.63
2018-06-24T13:28:03.329Z,5.40
2018-06-24T13:30:31.807Z,3.67
2018-06-24T13:33:00.305Z,4.30
2018-06-24T13:35:28.876Z,4.30
2018-06-24T13:37:57.337Z,3.30
2018-06-24T13:40:25.976Z,2.87
2018-06-24T13:42:58.007Z,3.43
2018-06-24T13:45:26.629Z,3.63
2018-06-24T13:47:55.058Z,4.37
2018-06-24T13:50:23.539Z,4.03
2018-06-24T13:52:52.059Z,4.87
2018-06-24T13:55:20.567Z,2.93
2018-06-24T13:57:49.087Z,3.87
2018-06-24T14:00:17.565Z,4.87
2018-06-24T14:02:46.015Z,5.80
2018-06-24T14:05:14.515Z,2.57
2018-06-24T14:07:42.993Z,4.90
2018-06-24T14:10:11.509Z,3.47
2018-06-24T14:12:39.960Z,3.97
2018-06-24T14:15:08.128Z,4.20
2018-06-24T14:17:36.718Z,4.70
2018-06-24T14:20:05.211Z,5.60
2018-06-24T14:22:33.714Z,6.67
2018-06-24T14:25:02.196Z,4.37
2018-06-24T14:27:30.693Z,5.40
2018-06-24T14:29:59.221Z,4.50
2018-06-24T14:32:27.701Z,5.30
2018-06-24T14:34:56.225Z,3.57
2018-06-24T14:37:24.700Z,4.93
2018-06-24T14:39:53.165Z,4.27
2018-06-24T14:42:21.675Z,3.47
2018-06-24T14:44:50.139Z,6.53
2018-06-24T14:47:18.598Z,7.70
2018-06-24T14:49:47.061Z,2.80
2018-06-24T14:52:15.803Z,4.00
2018-06-24T14:54:44.288Z,5.87
2018-06-24T14:57:12.762Z,3.90
2018-06-24T14:59:41.312Z,4.07
2018-06-24T15:02:09.753Z,2.97
2018-06-24T15:04:38.254Z,2.70
2018-06-24T15:07:06.750Z,4.47
2018-06-24T15:09:35.210Z,6.37
2018-06-24T15:12:03.725Z,4.70
2018-06-24T15:14:32.211Z,4.10
2018-06-24T15:17:00.680Z,5.17
2018-06-24T15:19:29.213Z,4.30
2018-06-24T15:21:57.675Z,3.27
2018-06-24T15:24:26.221Z,3.90
2018-06-24T15:26:54.697Z,3.07
2018-06-24T15:29:23.276Z,3.70
2018-06-24T15:31:51.744Z,4.13
2018-06-24T15:34:20.189Z,4.47
2018-06-24T15:36:48.684Z,3.77
2018-06-24T15:39:17.337Z,4.23
2018-06-24T15:41:45.843Z,4.10
2018-06-24T15:44:14.556Z,4.00
2018-06-24T15:46:43.071Z,3.50
2018-06-24T15:49:11.546Z,4.10
2018-06-24T15:51:40.056Z,3.67
2018-06-24T15:54:08.545Z,3.73
2018-06-24T15:56:37.004Z,3.93
2018-06-24T15:59:05.943Z,2.37
2018-06-24T16:01:34.425Z,4.23
2018-06-24T16:04:02.892Z,6.47
2018-06-24T16:06:31.341Z,5.27
2018-06-24T16:08:59.859Z,3.83
2018-06-24T16:11:28.360Z,4.37
2018-06-24T16:13:56.831Z,3.20
2018-06-24T16:16:25.338Z,3.77
2018-06-24T16:18:53.846Z,3.90
2018-06-24T16:21:22.481Z,4.17
2018-06-24T16:23:50.997Z,2.60
2018-06-24T16:26:19.493Z,4.03
2018-06-24T16:28:48.349Z,3.80
2018-06-24T16:31:17.130Z,3.13
2018-06-24T16:33:45.602Z,4.60
2018-06-24T16:36:14.176Z,3.93
2018-06-24T16:38:42.669Z,4.93
2018-06-24T16:41:11.157Z,2.83
2018-06-24T16:43:39.737Z,3.23
2018-06-24T16:46:08.268Z,4.00
2018-06-24T16:48:36.889Z,4.20
2018-06-24T16:51:05.447Z,3.77
2018-06-24T16:53:34.044Z,4.53
2018-06-24T16:56:03.897Z,3.47
2018-06-24T16:58:32.384Z,2.53
2018-06-24T17:01:00.846Z,4.03
2018-06-24T17:03:29.363Z,3.90
2018-06-24T17:05:58.317Z,3.87
2018-06-24T17:08:26.819Z,3.37
2018-06-24T17:10:55.327Z,2.30
2018-06-24T17:13:23.785Z,3.80
2018-06-24T17:15:52.321Z,4.07
2018-06-24T17:18:20.769Z,3.87
2018-06-24T17:20:49.249Z,2.10
2018-06-24T17:23:17.799Z,3.17
2018-06-24T17:25:46.235Z,5.20
2018-06-24T17:28:14.702Z,3.40
2018-06-24T17:30:44.609Z,3.47
2018-06-24T17:33:13.116Z,3.37
2018-06-24T17:35:41.669Z,2.67
2018-06-24T17:38:10.214Z,3.40
2018-06-24T17:40:38.686Z,2.20
2018-06-24T17:43:07.250Z,3.87
2018-06-24T17:45:35.735Z,3.27
2018-06-24T17:48:04.299Z,4.43
2018-06-24T17:50:32.781Z,3.70
2018-06-24T17:53:01.283Z,5.00
2018-06-24T17:55:29.746Z,4.50
2018-06-24T17:57:58.212Z,4.67
2018-06-24T18:00:26.697Z,4.03
2018-06-24T18:02:55.142Z,2.40
2018-06-24T18:05:23.648Z,4.50
2018-06-24T18:07:52.094Z,2.00
2018-06-24T18:10:20.629Z,4.17
2018-06-24T18:12:49.304Z,2.53
2018-06-24T18:15:17.770Z,5.10
2018-06-24T18:17:46.375Z,3.30
2018-06-24T18:20:14.490Z,3.43
2018-06-24T18:22:42.924Z,5.63
2018-06-24T18:25:11.392Z,4.37
2018-06-24T18:27:39.862Z,3.37
2018-06-24T18:30:08.344Z,4.43
2018-06-24T18:32:36.811Z,2.80
2018-06-24T18:35:05.425Z,3.07
2018-06-24T18:37:33.907Z,2.27
2018-06-24T18:40:02.462Z,6.83
2018-06-24T18:42:30.646Z,4.40
2018-06-24T18:44:59.255Z,4.33
2018-06-24T18:47:27.726Z,2.90
2018-06-24T18:49:56.197Z,4.00
2018-06-24T18:52:24.688Z,4.77
2018-06-24T18:54:53.208Z,3.87
2018-06-24T18:57:21.732Z,3.77
2018-06-24T18:59:50.354Z,3.73
2018-06-24T19:02:19.087Z,2.27
2018-06-24T19:04:47.582Z,4.03
2018-06-24T19:07:16.128Z,2.47
2018-06-24T19:09:44.665Z,2.23
2018-06-24T19:12:13.159Z,2.13
2018-06-24T19:14:41.694Z,2.80
2018-06-24T19:17:10.158Z,2.00
2018-06-24T19:19:38.713Z,2.00
2018-06-24T19:22:07.252Z,2.47
2018-06-24T19:24:35.717Z,2.10
2018-06-24T19:27:04.438Z,2.63
2018-06-24T19:29:32.929Z,2.57
2018-06-24T19:32:01.393Z,2.43
2018-06-24T19:34:29.851Z,2.00
2018-06-24T19:36:58.406Z,1.63
2018-06-24T19:39:26.886Z,2.60
2018-06-24T19:41:55.577Z,4.17
2018-06-24T19:44:24.048Z,3.20
2018-06-24T19:46:52.554Z,4.47
2018-06-24T19:49:21.030Z,3.37
2018-06-24T19:51:49.530Z,2.73
2018-06-24T19:54:17.974Z,4.47
2018-06-24T19:56:46.729Z,3.27
2018-06-24T19:59:14.863Z,3.83
2018-06-24T20:01:43.371Z,4.73
2018-06-24T20:04:11.901Z,3.17
2018-06-24T20:06:40.400Z,2.93
2018-06-24T20:09:10.249Z,4.40
2018-06-24T20:11:38.756Z,3.37
2018-06-24T20:14:07.323Z,3.53
2018-06-24T20:16:36.053Z,3.93
2018-06-24T20:19:04.527Z,4.20
2018-06-24T20:21:33.009Z,3.53
2018-06-24T20:24:01.513Z,2.67
2018-06-24T20:26:30.091Z,3.33
2018-06-24T20:28:58.574Z,4.27
2018-06-24T20:31:27.093Z,4.30
2018-06-24T20:33:55.565Z,4.60
2018-06-24T20:36:24.160Z,3.50
2018-06-24T20:38:52.623Z,3.83
2018-06-24T20:41:21.107Z,4.70
2018-06-24T20:43:49.671Z,4.60
2018-06-24T20:46:18.178Z,4.00
2018-06-24T20:48:46.639Z,3.00
2018-06-24T20:51:15.216Z,4.00
2018-06-24T20:53:43.763Z,4.33
2018-06-24T20:56:12.243Z,4.30
2018-06-24T20:58:40.676Z,5.33
2018-06-24T21:01:09.332Z,5.60
2018-06-24T21:03:37.916Z,3.60
2018-06-24T21:06:06.474Z,5.17
2018-06-24T21:08:34.782Z,5.13
2018-06-24T21:11:03.290Z,7.27
2018-06-24T21:13:31.752Z,6.27
2018-06-24T21:16:00.292Z,5.40
2018-06-24T21:18:28.778Z,3.70
2018-06-24T21:20:57.234Z,4.73
2018-06-24T21:23:25.768Z,5.47
2018-06-24T21:25:53.968Z,4.50
2018-06-24T21:28:22.616Z,4.17
2018-06-24T21:30:51.190Z,5.30
2018-06-24T21:33:19.671Z,3.50
2018-06-24T21:35:48.176Z,5.30
2018-06-24T21:38:16.957Z,6.20
2018-06-24T21:40:45.482Z,5.50
2018-06-24T21:43:13.974Z,4.53
2018-06-24T21:45:42.505Z,5.47
2018-06-24T21:48:11.078Z,5.57
2018-06-24T21:50:39.511Z,5.23
2018-06-24T21:53:08.049Z,6.60
2018-06-24T21:55:36.672Z,3.13
2018-06-24T21:58:05.930Z,3.77
2018-06-24T22:00:34.668Z,5.60
2018-06-24T22:03:03.148Z,5.07
2018-06-24T22:05:31.690Z,5.50
2018-06-24T22:08:00.135Z,5.13
2018-06-24T22:10:28.690Z,5.27
2018-06-24T22:12:57.242Z,5.90
2018-06-24T22:15:25.735Z,4.37
2018-06-24T22:17:54.284Z,8.40
2018-06-24T22:20:22.828Z,5.77
2018-06-24T22:22:51.387Z,5.33
2018-06-24T22:25:19.882Z,4.30
2018-06-24T22:27:48.361Z,8.27
2018-06-24T22:30:16.891Z,6.03
2018-06-24T22:32:45.377Z,3.73
2018-06-24T22:35:13.855Z,5.47
2018-06-24T22:37:42.392Z,10.10
2018-06-24T22:40:10.930Z,5.70
2018-06-24T22:42:39.479Z,6.80
2018-06-24T22:45:07.923Z,3.60
2018-06-24T22:47:36.494Z,6.03
2018-06-24T22:50:05.172Z,8.43
2018-06-24T22:52:33.628Z,5.50
2018-06-24T22:55:02.170Z,5.20
2018-06-24T22:57:30.649Z,5.53
2018-06-24T23:00:10.633Z,5.20
2018-06-24T23:02:39.816Z,6.67
2018-06-24T23:05:08.822Z,5.57
2018-06-24T23:07:37.342Z,5.33
2018-06-24T23:10:05.910Z,6.50
2018-06-24T23:12:34.546Z,5.20
2018-06-24T23:15:03.169Z,5.97
2018-06-24T23:17:31.625Z,5.30
2018-06-24T23:20:00.097Z,4.63
2018-06-24T23:22:28.568Z,7.57
2018-06-24T23:24:57.000Z,6.27
2018-06-24T23:27:25.575Z,5.90
2018-06-24T23:29:54.045Z,6.27
2018-06-24T23:32:22.478Z,6.70
2018-06-24T23:34:50.916Z,8.07
2018-06-24T23:37:19.582Z,5.43
2018-06-24T23:39:48.161Z,8.83
2018-06-24T23:42:16.612Z,6.63
2018-06-24T23:44:45.071Z,8.00
2018-06-24T23:47:13.571Z,6.47
2018-06-24T23:49:42.009Z,7.97
2018-06-24T23:52:10.462Z,7.37
2018-06-24T23:54:38.950Z,6.67
2018-06-24T23:57:07.424Z,8.80
2018-06-24T23:59:35.926Z,6.30
